sensor_id;sensor_type;location;lat;lon;timestamp;pressure;altitude;pressure_sealevel;temperature;humidity
16806;BME280;8520;50.102;20.010;2023-03-30T00:01:56;98347.34;;;6.23;55.10
16806;BME280;8520;50.102;20.010;2023-03-30T00:04:24;98340.06;;;6.29;54.41
16806;BME280;8520;50.102;20.010;2023-03-30T00:06:54;98343.34;;;6.15;54.44
16806;BME280;8520;50.102;20.010;2023-03-30T00:09:22;98342.72;;;6.41;54.18
16806;BME280;8520;50.102;20.010;2023-03-30T00:11:56;98334.38;;;6.54;53.71
16806;BME280;8520;50.102;20.010;2023-03-30T00:14:28;98338.50;;;6.59;53.69
16806;BME280;8520;50.102;20.010;2023-03-30T00:16:56;98337.47;;;6.65;53.37
16806;BME280;8520;50.102;20.010;2023-03-30T00:19:24;98329.19;;;6.56;53.22
16806;BME280;8520;50.102;20.010;2023-03-30T00:21:54;98337.72;;;6.58;53.13
16806;BME280;8520;50.102;20.010;2023-03-30T00:24:22;98331.25;;;6.74;52.99
16806;BME280;8520;50.102;20.010;2023-03-30T00:26:50;98331.09;;;6.68;53.51
16806;BME280;8520;50.102;20.010;2023-03-30T00:29:18;98329.69;;;6.64;53.52
16806;BME280;8520;50.102;20.010;2023-03-30T00:31:48;98334.53;;;6.51;53.87
16806;BME280;8520;50.102;20.010;2023-03-30T00:34:16;98329.09;;;6.60;54.11
16806;BME280;8520;50.102;20.010;2023-03-30T00:36:44;98317.66;;;6.61;53.59
16806;BME280;8520;50.102;20.010;2023-03-30T00:39:14;98322.84;;;6.59;53.79
16806;BME280;8520;50.102;20.010;2023-03-30T00:41:44;98314.66;;;6.37;54.07
16806;BME280;8520;50.102;20.010;2023-03-30T00:47:14;98319.41;;;6.46;53.98
16806;BME280;8520;50.102;20.010;2023-03-30T00:49:43;98306.47;;;6.47;54.06
16806;BME280;8520;50.102;20.010;2023-03-30T00:52:11;98311.44;;;6.70;53.34
16806;BME280;8520;50.102;20.010;2023-03-30T00:54:46;98314.06;;;6.83;53.48
16806;BME280;8520;50.102;20.010;2023-03-30T00:57:14;98299.06;;;6.65;53.48
16806;BME280;8520;50.102;20.010;2023-03-30T00:59:43;98306.00;;;6.88;53.08
16806;BME280;8520;50.102;20.010;2023-03-30T01:02:14;98304.59;;;6.84;53.37
16806;BME280;8520;50.102;20.010;2023-03-30T01:04:43;98296.25;;;6.96;53.43
16806;BME280;8520;50.102;20.010;2023-03-30T01:07:11;98301.13;;;6.92;53.57
16806;BME280;8520;50.102;20.010;2023-03-30T01:09:40;98303.84;;;6.92;54.16
16806;BME280;8520;50.102;20.010;2023-03-30T01:12:10;98290.59;;;6.82;54.09
16806;BME280;8520;50.102;20.010;2023-03-30T01:14:38;98290.31;;;6.98;54.14
16806;BME280;8520;50.102;20.010;2023-03-30T01:17:15;98298.81;;;6.82;54.62
16806;BME280;8520;50.102;20.010;2023-03-30T01:20:33;98284.81;;;6.89;54.80
16806;BME280;8520;50.102;20.010;2023-03-30T01:23:32;98289.41;;;7.01;54.72
16806;BME280;8520;50.102;20.010;2023-03-30T01:26:39;98282.09;;;6.98;54.13
16806;BME280;8520;50.102;20.010;2023-03-30T01:29:14;98270.47;;;6.94;54.28
16806;BME280;8520;50.102;20.010;2023-03-30T01:35:15;98276.72;;;6.94;54.64
16806;BME280;8520;50.102;20.010;2023-03-30T01:37:58;98272.63;;;6.90;54.91
16806;BME280;8520;50.102;20.010;2023-03-30T01:40:33;98275.06;;;6.88;54.87
16806;BME280;8520;50.102;20.010;2023-03-30T01:43:10;98285.13;;;6.91;54.60
16806;BME280;8520;50.102;20.010;2023-03-30T01:45:43;98283.88;;;6.83;54.96
16806;BME280;8520;50.102;20.010;2023-03-30T01:48:18;98278.88;;;6.32;55.27
16806;BME280;8520;50.102;20.010;2023-03-30T01:50:52;98280.41;;;6.33;55.12
16806;BME280;8520;50.102;20.010;2023-03-30T01:53:27;98280.59;;;6.57;54.48
16806;BME280;8520;50.102;20.010;2023-03-30T01:56:03;98274.63;;;6.49;54.33
16806;BME280;8520;50.102;20.010;2023-03-30T01:58:37;98269.34;;;6.55;54.69
16806;BME280;8520;50.102;20.010;2023-03-30T02:01:06;98271.72;;;6.34;54.85
16806;BME280;8520;50.102;20.010;2023-03-30T02:03:38;98265.66;;;6.49;54.59
16806;BME280;8520;50.102;20.010;2023-03-30T02:06:14;98269.44;;;6.33;54.74
16806;BME280;8520;50.102;20.010;2023-03-30T02:08:45;98267.78;;;6.04;55.72
16806;BME280;8520;50.102;20.010;2023-03-30T02:11:17;98275.31;;;5.91;56.10
16806;BME280;8520;50.102;20.010;2023-03-30T02:13:45;98263.09;;;5.83;56.52
16806;BME280;8520;50.102;20.010;2023-03-30T02:16:21;98270.34;;;5.99;56.03
16806;BME280;8520;50.102;20.010;2023-03-30T02:18:51;98262.13;;;6.39;55.61
16806;BME280;8520;50.102;20.010;2023-03-30T02:21:20;98265.13;;;6.23;55.78
16806;BME280;8520;50.102;20.010;2023-03-30T02:23:49;98257.19;;;6.16;55.44
16806;BME280;8520;50.102;20.010;2023-03-30T02:26:23;98258.75;;;6.26;55.75
16806;BME280;8520;50.102;20.010;2023-03-30T02:28:52;98264.84;;;6.79;54.80
16806;BME280;8520;50.102;20.010;2023-03-30T02:31:21;98264.78;;;6.61;54.80
16806;BME280;8520;50.102;20.010;2023-03-30T02:34:05;98258.56;;;6.60;55.13
16806;BME280;8520;50.102;20.010;2023-03-30T02:36:47;98250.00;;;6.67;55.12
16806;BME280;8520;50.102;20.010;2023-03-30T02:39:29;98252.00;;;6.67;55.14
16806;BME280;8520;50.102;20.010;2023-03-30T02:45:06;98252.44;;;6.65;55.05
16806;BME280;8520;50.102;20.010;2023-03-30T02:47:45;98242.72;;;6.83;54.94
16806;BME280;8520;50.102;20.010;2023-03-30T02:50:22;98233.47;;;7.26;54.04
16806;BME280;8520;50.102;20.010;2023-03-30T02:52:55;98229.50;;;7.09;54.24
16806;BME280;8520;50.102;20.010;2023-03-30T02:55:33;98234.06;;;7.12;54.53
16806;BME280;8520;50.102;20.010;2023-03-30T02:58:29;98233.91;;;6.79;55.21
16806;BME280;8520;50.102;20.010;2023-03-30T03:01:17;98230.41;;;6.96;55.40
16806;BME280;8520;50.102;20.010;2023-03-30T03:03:56;98230.09;;;6.94;55.16
16806;BME280;8520;50.102;20.010;2023-03-30T03:06:30;98229.78;;;6.92;55.41
16806;BME280;8520;50.102;20.010;2023-03-30T03:08:59;98219.88;;;7.41;54.39
16806;BME280;8520;50.102;20.010;2023-03-30T03:11:31;98223.69;;;6.97;55.26
16806;BME280;8520;50.102;20.010;2023-03-30T03:14:00;98218.66;;;7.33;54.81
16806;BME280;8520;50.102;20.010;2023-03-30T03:16:31;98225.69;;;7.24;55.01
16806;BME280;8520;50.102;20.010;2023-03-30T03:19:08;98223.84;;;7.12;55.10
16806;BME280;8520;50.102;20.010;2023-03-30T03:21:38;98224.47;;;6.89;55.56
16806;BME280;8520;50.102;20.010;2023-03-30T03:24:06;98222.19;;;7.06;55.54
16806;BME280;8520;50.102;20.010;2023-03-30T03:26:57;98213.94;;;7.51;54.50
16806;BME280;8520;50.102;20.010;2023-03-30T03:29:29;98213.63;;;7.49;54.81
16806;BME280;8520;50.102;20.010;2023-03-30T03:31:57;98208.56;;;7.66;54.32
16806;BME280;8520;50.102;20.010;2023-03-30T03:34:30;98207.06;;;7.28;55.06
16806;BME280;8520;50.102;20.010;2023-03-30T03:37:02;98195.63;;;7.48;54.59
16806;BME280;8520;50.102;20.010;2023-03-30T03:39:32;98194.09;;;7.57;54.87
16806;BME280;8520;50.102;20.010;2023-03-30T03:42:08;98196.38;;;7.31;55.30
16806;BME280;8520;50.102;20.010;2023-03-30T03:44:47;98192.00;;;7.42;54.93
16806;BME280;8520;50.102;20.010;2023-03-30T03:47:15;98189.69;;;7.13;55.64
16806;BME280;8520;50.102;20.010;2023-03-30T03:49:45;98192.00;;;7.15;56.15
16806;BME280;8520;50.102;20.010;2023-03-30T03:52:13;98179.94;;;6.85;56.92
16806;BME280;8520;50.102;20.010;2023-03-30T03:54:41;98179.03;;;6.88;57.28
16806;BME280;8520;50.102;20.010;2023-03-30T03:57:09;98178.88;;;6.82;57.52
16806;BME280;8520;50.102;20.010;2023-03-30T03:59:37;98182.09;;;6.99;57.75
16806;BME280;8520;50.102;20.010;2023-03-30T04:02:07;98172.75;;;7.51;56.21
16806;BME280;8520;50.102;20.010;2023-03-30T04:04:35;98172.25;;;7.62;55.75
16806;BME280;8520;50.102;20.010;2023-03-30T04:07:04;98170.56;;;7.65;55.55
16806;BME280;8520;50.102;20.010;2023-03-30T04:09:32;98160.56;;;7.86;54.81
16806;BME280;8520;50.102;20.010;2023-03-30T04:12:36;98158.94;;;7.79;55.00
16806;BME280;8520;50.102;20.010;2023-03-30T04:15:23;98152.03;;;7.83;54.96
16806;BME280;8520;50.102;20.010;2023-03-30T04:18:16;98146.81;;;7.86;55.06
16806;BME280;8520;50.102;20.010;2023-03-30T04:20:51;98151.28;;;7.83;54.95
16806;BME280;8520;50.102;20.010;2023-03-30T04:23:39;98149.09;;;7.96;54.86
16806;BME280;8520;50.102;20.010;2023-03-30T04:26:37;98144.78;;;7.95;54.96
16806;BME280;8520;50.102;20.010;2023-03-30T04:29:19;98142.22;;;7.92;55.17
16806;BME280;8520;50.102;20.010;2023-03-30T04:32:06;98137.72;;;7.79;55.34
16806;BME280;8520;50.102;20.010;2023-03-30T04:34:45;98123.66;;;7.77;55.68
16806;BME280;8520;50.102;20.010;2023-03-30T04:37:29;98127.38;;;7.65;55.62
16806;BME280;8520;50.102;20.010;2023-03-30T04:40:16;98121.53;;;7.81;55.82
16806;BME280;8520;50.102;20.010;2023-03-30T04:42:54;98126.19;;;7.57;55.63
16806;BME280;8520;50.102;20.010;2023-03-30T04:45:53;98131.94;;;7.68;55.43
16806;BME280;8520;50.102;20.010;2023-03-30T04:48:40;98125.34;;;7.75;55.39
16806;BME280;8520;50.102;20.010;2023-03-30T04:51:29;98123.91;;;7.55;56.05
16806;BME280;8520;50.102;20.010;2023-03-30T04:54:16;98117.50;;;7.49;56.53
16806;BME280;8520;50.102;20.010;2023-03-30T04:57:23;98115.00;;;7.70;56.24
16806;BME280;8520;50.102;20.010;2023-03-30T05:00:23;98113.69;;;7.89;56.00
16806;BME280;8520;50.102;20.010;2023-03-30T05:03:19;98117.44;;;7.68;56.85
16806;BME280;8520;50.102;20.010;2023-03-30T05:06:15;98123.44;;;7.57;57.40
16806;BME280;8520;50.102;20.010;2023-03-30T05:09:17;98120.50;;;7.70;57.42
16806;BME280;8520;50.102;20.010;2023-03-30T05:12:04;98123.22;;;8.03;56.71
16806;BME280;8520;50.102;20.010;2023-03-30T05:14:57;98111.31;;;8.30;56.76
16806;BME280;8520;50.102;20.010;2023-03-30T05:17:43;98108.63;;;8.21;56.76
16806;BME280;8520;50.102;20.010;2023-03-30T05:20:15;98111.16;;;8.33;56.92
16806;BME280;8520;50.102;20.010;2023-03-30T05:22:57;98107.22;;;8.25;57.11
16806;BME280;8520;50.102;20.010;2023-03-30T05:25:46;98102.78;;;8.52;56.90
16806;BME280;8520;50.102;20.010;2023-03-30T05:28:43;98104.50;;;8.64;56.70
16806;BME280;8520;50.102;20.010;2023-03-30T05:31:39;98097.31;;;8.81;56.41
16806;BME280;8520;50.102;20.010;2023-03-30T05:34:26;98102.66;;;8.46;57.29
16806;BME280;8520;50.102;20.010;2023-03-30T05:37:08;98100.84;;;8.82;56.62
16806;BME280;8520;50.102;20.010;2023-03-30T05:39:46;98093.97;;;8.62;57.03
16806;BME280;8520;50.102;20.010;2023-03-30T05:42:36;98099.41;;;8.86;56.61
16806;BME280;8520;50.102;20.010;2023-03-30T05:45:23;98097.72;;;9.04;56.28
16806;BME280;8520;50.102;20.010;2023-03-30T05:47:57;98100.84;;;8.82;56.75
16806;BME280;8520;50.102;20.010;2023-03-30T05:50:40;98099.72;;;8.88;56.71
16806;BME280;8520;50.102;20.010;2023-03-30T05:53:18;98099.34;;;9.10;56.24
16806;BME280;8520;50.102;20.010;2023-03-30T05:55:59;98103.47;;;8.76;57.06
16806;BME280;8520;50.102;20.010;2023-03-30T05:58:47;98095.84;;;9.10;56.59
16806;BME280;8520;50.102;20.010;2023-03-30T06:01:32;98100.00;;;8.90;56.99
16806;BME280;8520;50.102;20.010;2023-03-30T06:04:01;98088.81;;;9.09;57.17
16806;BME280;8520;50.102;20.010;2023-03-30T06:06:30;98089.19;;;9.16;56.95
16806;BME280;8520;50.102;20.010;2023-03-30T06:08:58;98080.47;;;9.33;56.59
16806;BME280;8520;50.102;20.010;2023-03-30T06:11:28;98083.38;;;9.14;56.99
16806;BME280;8520;50.102;20.010;2023-03-30T06:14:11;98081.31;;;9.09;57.20
16806;BME280;8520;50.102;20.010;2023-03-30T06:16:43;98083.31;;;9.38;56.55
16806;BME280;8520;50.102;20.010;2023-03-30T06:19:12;98081.88;;;9.58;56.52
16806;BME280;8520;50.102;20.010;2023-03-30T06:21:40;98075.88;;;9.59;56.15
16806;BME280;8520;50.102;20.010;2023-03-30T06:24:28;98075.31;;;9.70;55.79
16806;BME280;8520;50.102;20.010;2023-03-30T06:26:58;98077.72;;;9.82;55.70
16806;BME280;8520;50.102;20.010;2023-03-30T06:29:29;98068.84;;;9.93;56.21
16806;BME280;8520;50.102;20.010;2023-03-30T06:31:58;98063.59;;;9.95;55.89
16806;BME280;8520;50.102;20.010;2023-03-30T06:34:39;98067.81;;;9.91;56.07
16806;BME280;8520;50.102;20.010;2023-03-30T06:37:08;98066.59;;;9.92;55.89
16806;BME280;8520;50.102;20.010;2023-03-30T06:39:36;98068.06;;;10.28;55.69
16806;BME280;8520;50.102;20.010;2023-03-30T06:42:05;98065.16;;;10.37;55.65
16806;BME280;8520;50.102;20.010;2023-03-30T06:44:49;98062.50;;;10.48;54.64
16806;BME280;8520;50.102;20.010;2023-03-30T06:47:19;98065.03;;;10.72;55.00
16806;BME280;8520;50.102;20.010;2023-03-30T06:49:48;98058.94;;;10.88;54.61
16806;BME280;8520;50.102;20.010;2023-03-30T06:52:25;98062.09;;;11.02;54.23
16806;BME280;8520;50.102;20.010;2023-03-30T06:54:54;98061.94;;;11.11;54.45
16806;BME280;8520;50.102;20.010;2023-03-30T06:57:23;98053.34;;;11.35;53.81
16806;BME280;8520;50.102;20.010;2023-03-30T06:59:53;98049.66;;;11.49;53.02
16806;BME280;8520;50.102;20.010;2023-03-30T07:02:21;98045.44;;;11.53;53.29
16806;BME280;8520;50.102;20.010;2023-03-30T07:04:49;98051.81;;;11.71;53.26
16806;BME280;8520;50.102;20.010;2023-03-30T07:07:24;98054.44;;;11.86;52.58
16806;BME280;8520;50.102;20.010;2023-03-30T07:09:52;98047.69;;;11.98;52.89
16806;BME280;8520;50.102;20.010;2023-03-30T07:12:21;98049.91;;;11.88;52.80
16806;BME280;8520;50.102;20.010;2023-03-30T07:14:50;98039.03;;;11.73;52.71
16806;BME280;8520;50.102;20.010;2023-03-30T07:17:20;98041.50;;;11.34;54.14
16806;BME280;8520;50.102;20.010;2023-03-30T07:19:52;98048.47;;;11.56;53.69
16806;BME280;8520;50.102;20.010;2023-03-30T07:22:21;98044.88;;;11.44;53.40
16806;BME280;8520;50.102;20.010;2023-03-30T07:24:49;98041.25;;;11.69;53.23
16806;BME280;8520;50.102;20.010;2023-03-30T07:27:18;98034.03;;;11.77;52.87
16806;BME280;8520;50.102;20.010;2023-03-30T07:29:48;98033.69;;;12.13;53.10
16806;BME280;8520;50.102;20.010;2023-03-30T07:32:16;98032.59;;;12.47;52.29
16806;BME280;8520;50.102;20.010;2023-03-30T07:34:46;98021.34;;;12.73;51.79
16806;BME280;8520;50.102;20.010;2023-03-30T07:37:15;98023.84;;;12.65;51.80
16806;BME280;8520;50.102;20.010;2023-03-30T07:39:47;98017.31;;;12.69;51.02
16806;BME280;8520;50.102;20.010;2023-03-30T07:42:15;98014.06;;;12.81;51.34
16806;BME280;8520;50.102;20.010;2023-03-30T07:44:43;98008.03;;;13.05;51.24
16806;BME280;8520;50.102;20.010;2023-03-30T07:47:15;98015.34;;;13.08;51.63
16806;BME280;8520;50.102;20.010;2023-03-30T07:49:43;98015.34;;;12.15;52.53
16806;BME280;8520;50.102;20.010;2023-03-30T07:52:13;98006.75;;;13.06;51.55
16806;BME280;8520;50.102;20.010;2023-03-30T07:54:50;98003.25;;;12.83;52.13
16806;BME280;8520;50.102;20.010;2023-03-30T07:57:24;98006.50;;;12.99;51.54
16806;BME280;8520;50.102;20.010;2023-03-30T07:59:52;98008.03;;;13.00;51.40
16806;BME280;8520;50.102;20.010;2023-03-30T08:02:37;98006.50;;;13.32;50.64
16806;BME280;8520;50.102;20.010;2023-03-30T08:05:09;98003.22;;;13.39;50.72
16806;BME280;8520;50.102;20.010;2023-03-30T08:08:02;97996.66;;;12.70;52.23
16806;BME280;8520;50.102;20.010;2023-03-30T08:10:33;97984.34;;;13.21;51.37
16806;BME280;8520;50.102;20.010;2023-03-30T08:13:02;97983.84;;;12.94;50.99
16806;BME280;8520;50.102;20.010;2023-03-30T08:15:30;97978.72;;;12.31;52.29
16806;BME280;8520;50.102;20.010;2023-03-30T08:17:58;97975.22;;;12.36;52.90
16806;BME280;8520;50.102;20.010;2023-03-30T08:20:30;97963.19;;;12.95;52.47
16806;BME280;8520;50.102;20.010;2023-03-30T08:22:58;97963.94;;;13.24;51.13
16806;BME280;8520;50.102;20.010;2023-03-30T08:25:28;97970.75;;;13.17;51.22
16806;BME280;8520;50.102;20.010;2023-03-30T08:27:56;97973.53;;;12.95;51.71
16806;BME280;8520;50.102;20.010;2023-03-30T08:30:24;97979.81;;;13.12;51.30
16806;BME280;8520;50.102;20.010;2023-03-30T08:32:52;97968.97;;;13.26;51.09
16806;BME280;8520;50.102;20.010;2023-03-30T08:35:21;97981.34;;;13.02;52.12
16806;BME280;8520;50.102;20.010;2023-03-30T08:37:49;97976.91;;;13.96;50.42
16806;BME280;8520;50.102;20.010;2023-03-30T08:40:18;97971.41;;;13.85;50.38
16806;BME280;8520;50.102;20.010;2023-03-30T08:43:05;97970.97;;;14.28;49.40
16806;BME280;8520;50.102;20.010;2023-03-30T08:45:41;97976.47;;;14.39;49.43
16806;BME280;8520;50.102;20.010;2023-03-30T08:48:14;97971.16;;;14.35;49.55
16806;BME280;8520;50.102;20.010;2023-03-30T08:50:49;97971.91;;;14.36;49.46
16806;BME280;8520;50.102;20.010;2023-03-30T08:53:19;97972.63;;;14.48;49.75
16806;BME280;8520;50.102;20.010;2023-03-30T08:55:51;97961.75;;;14.03;49.67
16806;BME280;8520;50.102;20.010;2023-03-30T08:58:28;97964.16;;;14.23;49.41
16806;BME280;8520;50.102;20.010;2023-03-30T09:01:07;97963.19;;;14.15;49.70
16806;BME280;8520;50.102;20.010;2023-03-30T09:03:39;97965.66;;;14.30;49.02
16806;BME280;8520;50.102;20.010;2023-03-30T09:06:13;97972.25;;;14.74;48.60
16806;BME280;8520;50.102;20.010;2023-03-30T09:08:46;97964.16;;;15.06;48.38
16806;BME280;8520;50.102;20.010;2023-03-30T09:11:20;97958.03;;;14.83;48.95
16806;BME280;8520;50.102;20.010;2023-03-30T09:13:53;97972.81;;;14.61;48.50
16806;BME280;8520;50.102;20.010;2023-03-30T09:16:28;97955.19;;;14.88;48.28
16806;BME280;8520;50.102;20.010;2023-03-30T09:19:02;97956.59;;;14.71;48.57
16806;BME280;8520;50.102;20.010;2023-03-30T09:21:32;97961.91;;;14.69;48.33
16806;BME280;8520;50.102;20.010;2023-03-30T09:24:09;97952.09;;;14.98;48.29
16806;BME280;8520;50.102;20.010;2023-03-30T09:26:44;97935.88;;;15.32;48.33
16806;BME280;8520;50.102;20.010;2023-03-30T09:29:18;97938.28;;;15.90;46.74
16806;BME280;8520;50.102;20.010;2023-03-30T09:31:50;97926.94;;;15.88;46.11
16806;BME280;8520;50.102;20.010;2023-03-30T09:34:24;97917.78;;;15.44;47.25
16806;BME280;8520;50.102;20.010;2023-03-30T09:36:56;97916.53;;;15.69;47.13
16806;BME280;8520;50.102;20.010;2023-03-30T09:39:26;97916.81;;;15.41;47.09
16806;BME280;8520;50.102;20.010;2023-03-30T09:42:09;97908.16;;;14.96;48.13
16806;BME280;8520;50.102;20.010;2023-03-30T09:44:43;97893.00;;;15.46;47.16
16806;BME280;8520;50.102;20.010;2023-03-30T09:47:24;97884.25;;;15.36;47.67
16806;BME280;8520;50.102;20.010;2023-03-30T09:49:57;97883.09;;;15.02;48.59
16806;BME280;8520;50.102;20.010;2023-03-30T09:52:27;97880.50;;;15.09;47.88
16806;BME280;8520;50.102;20.010;2023-03-30T09:55:15;97882.19;;;15.61;47.21
16806;BME280;8520;50.102;20.010;2023-03-30T09:57:45;97877.31;;;15.48;47.59
16806;BME280;8520;50.102;20.010;2023-03-30T10:00:25;97874.81;;;15.64;47.05
16806;BME280;8520;50.102;20.010;2023-03-30T10:02:56;97877.53;;;15.94;46.36
16806;BME280;8520;50.102;20.010;2023-03-30T10:05:25;97882.28;;;14.82;48.24
16806;BME280;8520;50.102;20.010;2023-03-30T10:07:55;97877.09;;;15.22;47.90
16806;BME280;8520;50.102;20.010;2023-03-30T10:10:31;97874.09;;;14.90;48.13
16806;BME280;8520;50.102;20.010;2023-03-30T10:13:04;97875.19;;;14.10;49.35
16806;BME280;8520;50.102;20.010;2023-03-30T10:15:36;97864.47;;;14.67;48.77
16806;BME280;8520;50.102;20.010;2023-03-30T10:18:20;97873.28;;;13.88;50.06
16806;BME280;8520;50.102;20.010;2023-03-30T10:20:52;97848.00;;;15.23;48.26
16806;BME280;8520;50.102;20.010;2023-03-30T10:23:21;97849.75;;;15.02;48.46
16806;BME280;8520;50.102;20.010;2023-03-30T10:25:59;97837.63;;;15.24;48.04
16806;BME280;8520;50.102;20.010;2023-03-30T10:28:31;97841.13;;;14.45;49.81
16806;BME280;8520;50.102;20.010;2023-03-30T10:31:06;97841.81;;;14.57;49.34
16806;BME280;8520;50.102;20.010;2023-03-30T10:33:38;97826.38;;;14.91;48.71
16806;BME280;8520;50.102;20.010;2023-03-30T10:36:09;97822.28;;;15.17;48.49
16806;BME280;8520;50.102;20.010;2023-03-30T10:38:39;97818.00;;;15.40;48.51
16806;BME280;8520;50.102;20.010;2023-03-30T10:41:10;97815.72;;;14.96;48.54
16806;BME280;8520;50.102;20.010;2023-03-30T10:43:40;97814.09;;;15.06;49.21
16806;BME280;8520;50.102;20.010;2023-03-30T10:46:13;97806.56;;;15.44;47.97
16806;BME280;8520;50.102;20.010;2023-03-30T10:48:54;97800.34;;;16.13;47.46
16806;BME280;8520;50.102;20.010;2023-03-30T10:51:33;97797.94;;;16.36;46.98
16806;BME280;8520;50.102;20.010;2023-03-30T10:54:09;97785.72;;;15.75;47.48
16806;BME280;8520;50.102;20.010;2023-03-30T10:56:45;97777.78;;;15.60;48.23
16806;BME280;8520;50.102;20.010;2023-03-30T10:59:33;97792.09;;;15.89;48.25
16806;BME280;8520;50.102;20.010;2023-03-30T11:05:26;97777.28;;;16.45;47.15
16806;BME280;8520;50.102;20.010;2023-03-30T11:08:00;97773.28;;;16.72;47.05
16806;BME280;8520;50.102;20.010;2023-03-30T11:10:30;97765.31;;;16.63;46.94
16806;BME280;8520;50.102;20.010;2023-03-30T11:13:01;97768.72;;;16.43;47.52
16806;BME280;8520;50.102;20.010;2023-03-30T11:15:35;97764.69;;;16.57;47.22
16806;BME280;8520;50.102;20.010;2023-03-30T11:18:12;97749.31;;;16.96;47.08
16806;BME280;8520;50.102;20.010;2023-03-30T11:20:48;97745.75;;;17.22;46.55
16806;BME280;8520;50.102;20.010;2023-03-30T11:23:24;97727.41;;;17.00;46.58
16806;BME280;8520;50.102;20.010;2023-03-30T11:25:59;97730.44;;;17.02;46.85
16806;BME280;8520;50.102;20.010;2023-03-30T11:28:49;97736.06;;;17.36;46.74
16806;BME280;8520;50.102;20.010;2023-03-30T11:31:39;97743.69;;;17.35;46.27
16806;BME280;8520;50.102;20.010;2023-03-30T11:34:16;97737.69;;;17.18;46.98
16806;BME280;8520;50.102;20.010;2023-03-30T11:36:55;97739.88;;;17.12;47.22
16806;BME280;8520;50.102;20.010;2023-03-30T11:39:29;97747.03;;;17.21;46.67
16806;BME280;8520;50.102;20.010;2023-03-30T11:42:05;97735.84;;;17.34;46.91
16806;BME280;8520;50.102;20.010;2023-03-30T11:44:38;97742.53;;;16.91;47.33
16806;BME280;8520;50.102;20.010;2023-03-30T11:47:22;97732.72;;;17.37;46.64
16806;BME280;8520;50.102;20.010;2023-03-30T11:50:04;97728.78;;;17.19;47.15
16806;BME280;8520;50.102;20.010;2023-03-30T11:52:45;97730.38;;;17.28;47.09
16806;BME280;8520;50.102;20.010;2023-03-30T11:55:37;97725.59;;;17.29;46.92
16806;BME280;8520;50.102;20.010;2023-03-30T11:58:16;97732.97;;;16.60;48.17
16806;BME280;8520;50.102;20.010;2023-03-30T12:00:52;97737.69;;;16.65;48.55
16806;BME280;8520;50.102;20.010;2023-03-30T12:03:35;97725.28;;;16.66;48.69
16806;BME280;8520;50.102;20.010;2023-03-30T12:06:26;97728.47;;;16.57;48.96
16806;BME280;8520;50.102;20.010;2023-03-30T12:09:12;97733.00;;;16.86;48.59
16806;BME280;8520;50.102;20.010;2023-03-30T12:11:46;97726.94;;;16.43;49.46
16806;BME280;8520;50.102;20.010;2023-03-30T12:14:43;97723.72;;;15.93;50.29
16806;BME280;8520;50.102;20.010;2023-03-30T12:17:26;97716.63;;;16.11;49.98
16806;BME280;8520;50.102;20.010;2023-03-30T12:20:04;97705.19;;;16.54;49.11
16806;BME280;8520;50.102;20.010;2023-03-30T12:22:36;97700.91;;;16.53;49.00
16806;BME280;8520;50.102;20.010;2023-03-30T12:25:23;97692.84;;;16.10;49.79
16806;BME280;8520;50.102;20.010;2023-03-30T12:28:02;97688.03;;;16.37;49.33
16806;BME280;8520;50.102;20.010;2023-03-30T12:30:42;97684.84;;;16.99;49.02
16806;BME280;8520;50.102;20.010;2023-03-30T12:33:12;97677.28;;;17.34;48.27
16806;BME280;8520;50.102;20.010;2023-03-30T12:35:56;97665.63;;;18.40;46.38
16806;BME280;8520;50.102;20.010;2023-03-30T12:38:26;97657.41;;;18.99;45.14
16806;BME280;8520;50.102;20.010;2023-03-30T12:41:08;97658.97;;;18.22;46.88
16806;BME280;8520;50.102;20.010;2023-03-30T12:44:01;97677.91;;;16.93;48.58
16806;BME280;8520;50.102;20.010;2023-03-30T12:46:39;97684.22;;;16.40;50.19
16806;BME280;8520;50.102;20.010;2023-03-30T12:49:15;97675.22;;;17.00;49.25
16806;BME280;8520;50.102;20.010;2023-03-30T12:51:59;97683.13;;;17.23;49.23
16806;BME280;8520;50.102;20.010;2023-03-30T12:54:43;97683.28;;;16.77;50.28
16806;BME280;8520;50.102;20.010;2023-03-30T12:57:27;97688.59;;;17.15;49.53
16806;BME280;8520;50.102;20.010;2023-03-30T13:00:24;97678.31;;;17.44;49.31
16806;BME280;8520;50.102;20.010;2023-03-30T13:03:25;97684.56;;;16.89;49.93
16806;BME280;8520;50.102;20.010;2023-03-30T13:05:58;97690.69;;;16.03;51.46
16806;BME280;8520;50.102;20.010;2023-03-30T13:08:31;97697.47;;;16.21;51.29
16806;BME280;8520;50.102;20.010;2023-03-30T13:11:11;97695.19;;;15.36;53.08
16806;BME280;8520;50.102;20.010;2023-03-30T13:13:50;97688.13;;;16.18;51.41
16806;BME280;8520;50.102;20.010;2023-03-30T13:16:45;97683.91;;;15.66;52.17
16806;BME280;8520;50.102;20.010;2023-03-30T13:19:21;97671.69;;;15.88;52.27
16806;BME280;8520;50.102;20.010;2023-03-30T13:21:55;97679.69;;;16.11;51.70
16806;BME280;8520;50.102;20.010;2023-03-30T13:24:31;97681.59;;;16.02;51.22
16806;BME280;8520;50.102;20.010;2023-03-30T13:27:23;97680.19;;;16.09;51.71
16806;BME280;8520;50.102;20.010;2023-03-30T13:29:57;97680.09;;;16.01;51.67
16806;BME280;8520;50.102;20.010;2023-03-30T13:32:45;97691.16;;;15.88;52.52
16806;BME280;8520;50.102;20.010;2023-03-30T13:35:29;97676.81;;;15.84;51.98
16806;BME280;8520;50.102;20.010;2023-03-30T13:38:27;97676.47;;;16.20;52.02
16806;BME280;8520;50.102;20.010;2023-03-30T13:41:06;97676.94;;;17.03;50.32
16806;BME280;8520;50.102;20.010;2023-03-30T13:43:44;97674.59;;;16.68;50.82
16806;BME280;8520;50.102;20.010;2023-03-30T13:46:23;97674.19;;;16.77;50.96
16806;BME280;8520;50.102;20.010;2023-03-30T13:49:03;97673.81;;;16.41;51.63
16806;BME280;8520;50.102;20.010;2023-03-30T13:51:35;97667.22;;;16.70;51.30
16806;BME280;8520;50.102;20.010;2023-03-30T13:54:10;97665.88;;;16.98;50.68
16806;BME280;8520;50.102;20.010;2023-03-30T13:56:43;97671.13;;;16.35;51.42
16806;BME280;8520;50.102;20.010;2023-03-30T13:59:16;97672.13;;;16.38;51.35
16806;BME280;8520;50.102;20.010;2023-03-30T14:01:49;97667.16;;;16.17;51.79
16806;BME280;8520;50.102;20.010;2023-03-30T14:04:19;97663.53;;;16.35;51.59
16806;BME280;8520;50.102;20.010;2023-03-30T14:06:48;97663.97;;;16.40;51.75